Time;durP1;ratioP1;P1;durP2;ratioP2;P2;SDS_P1;SDS_P2;PMS_P1;PMS_P2;Temp;Humidity;BMP_temperature;BMP_pressure;BME280_temperature;BME280_humidity;BME280_pressure;Samples;Min_cycle;Max_cycle;Signal;HPM_P1;HPM_P2
2022/01/26 00:07:52;;;;;;;19.95;7.28;;;-4.10;99.90;;;;;;4991990;28;20061;-81
2022/01/26 00:10:18;;;;;;;17.33;8.15;;;-4.20;99.90;;;;;;4976451;28;20022;-78
2022/01/26 00:12:44;;;;;;;22.58;9.35;;;-4.20;99.90;;;;;;4970347;28;20113;-78
2022/01/26 00:15:10;;;;;;;16.60;7.43;;;-4.10;99.90;;;;;;4969387;28;20065;-78
2022/01/26 00:17:36;;;;;;;14.63;7.50;;;-4.30;99.90;;;;;;4990176;28;20042;-79
2022/01/26 00:22:58;;;;;;;17.52;6.85;;;-4.50;99.90;;;;;;4991344;28;20026;-78
2022/01/26 00:38:45;;;;;;;22.58;8.45;;;-3.40;99.90;;;;;;4988983;28;20105;-77
2022/01/26 00:41:16;;;;;;;18.83;10.05;;;-4.20;99.90;;;;;;4990716;28;20231;-85
2022/01/26 00:43:48;;;;;;;18.70;7.88;;;-4.40;99.90;;;;;;4974724;28;20088;-79
2022/01/26 00:46:16;;;;;;;24.00;7.70;;;-3.90;99.90;;;;;;4968852;28;20026;-80
2022/01/26 00:48:43;;;;;;;20.40;8.27;;;-2.30;99.90;;;;;;4992077;28;20082;-77
2022/01/26 00:51:11;;;;;;;23.83;8.60;;;-4.40;99.90;;;;;;4974770;28;20026;-78
2022/01/26 00:53:42;;;;;;;21.05;8.00;;;-4.40;99.90;;;;;;4985369;28;20022;-78
2022/01/26 00:56:08;;;;;;;19.05;7.78;;;-4.30;99.90;;;;;;4983278;28;20038;-80
2022/01/26 00:58:34;;;;;;;18.10;7.20;;;-4.50;99.90;;;;;;4984105;28;20034;-81
2022/01/26 01:01:02;;;;;;;14.95;7.68;;;-4.70;99.90;;;;;;4983696;28;20023;-91
2022/01/26 01:03:30;;;;;;;18.67;6.82;;;-4.80;99.90;;;;;;4965953;28;20170;-78
2022/01/26 01:06:06;;;;;;;14.60;7.18;;;-4.90;99.90;;;;;;4983839;28;20171;-91
2022/01/26 01:08:32;;;;;;;14.70;7.80;;;-4.90;99.90;;;;;;4983618;28;20027;-83
2022/01/26 01:10:58;;;;;;;22.85;7.97;;;-4.90;99.90;;;;;;4971492;28;20030;-78
2022/01/26 01:13:35;;;;;;;18.60;6.95;;;-4.80;99.90;;;;;;4990293;28;20361;-78
2022/01/26 01:16:03;;;;;;;18.05;7.20;;;-4.80;99.90;;;;;;4984901;28;20414;-78
2022/01/26 01:21:40;;;;;;;17.17;7.22;;;-3.20;99.90;;;;;;4984467;28;20394;-78
2022/01/26 01:24:23;;;;;;;17.85;8.20;;;-6.50;99.90;;;;;;4983906;28;20038;-78
2022/01/26 01:29:37;;;;;;;30.20;8.57;;;-4.60;99.90;;;;;;4985159;28;20034;-78
2022/01/26 01:32:11;;;;;;;24.65;7.53;;;-3.60;99.90;;;;;;4967530;28;20030;-78
2022/01/26 01:34:39;;;;;;;21.10;7.05;;;-4.70;99.90;;;;;;4968182;28;20050;-86
2022/01/26 01:37:08;;;;;;;22.05;7.35;;;-4.80;99.90;;;;;;4985650;28;20093;-85
2022/01/26 01:39:35;;;;;;;22.85;8.77;;;-2.30;99.90;;;;;;4985833;28;20037;-77
2022/01/26 01:42:03;;;;;;;19.95;8.50;;;-4.70;99.90;;;;;;4968743;28;20073;-87
2022/01/26 01:44:29;;;;;;;16.88;7.20;;;-4.70;99.90;;;;;;4985424;28;20045;-78
2022/01/26 01:46:56;;;;;;;19.80;7.43;;;-4.30;99.90;;;;;;4987794;28;20030;-78
2022/01/26 01:49:21;;;;;;;15.35;6.55;;;-3.10;99.90;;;;;;4989729;28;20109;-79
2022/01/26 01:52:01;;;;;;;19.50;7.85;;;-4.70;99.90;;;;;;4972107;28;20133;-79
2022/01/26 01:54:26;;;;;;;;;;;-4.80;99.90;;;;;;4979297;28;20356;-79
2022/01/26 01:56:56;;;;;;;15.60;5.13;;;-4.90;99.90;;;;;;5001231;28;19916;-78
2022/01/26 01:59:24;;;;;;;19.02;6.43;;;-5.00;99.90;;;;;;5001270;28;20034;-79
2022/01/26 02:01:50;;;;;;;28.63;7.57;;;-5.10;99.90;;;;;;4975139;28;20026;-79
2022/01/26 02:04:16;;;;;;;15.73;6.43;;;-5.10;99.90;;;;;;4991514;28;20018;-78
2022/01/26 02:06:43;;;;;;;16.08;7.80;;;-5.20;99.90;;;;;;4991467;28;20045;-78
2022/01/26 02:09:10;;;;;;;17.08;7.57;;;-5.20;99.90;;;;;;4974374;28;20026;-78
2022/01/26 02:11:44;;;;;;;18.92;6.93;;;-5.20;99.90;;;;;;4974416;28;20076;-78
2022/01/26 02:14:17;;;;;;;19.08;8.00;;;-2.30;99.90;;;;;;4992686;28;20053;-78
2022/01/26 03:02:20;;;;;;;15.40;7.53;;;-5.50;99.90;;;;;;4992247;28;20049;-78
2022/01/26 03:04:50;;;;;;;15.27;7.72;;;-5.50;99.90;;;;;;4992511;28;20076;-82
2022/01/26 03:07:25;;;;;;;16.17;6.72;;;-5.60;99.90;;;;;;4974923;28;20025;-78
2022/01/26 03:10:05;;;;;;;17.27;7.00;;;-5.60;99.90;;;;;;4992155;28;20533;-79
2022/01/26 03:12:41;;;;;;;18.88;6.82;;;-5.70;99.90;;;;;;4992261;28;20057;-78
2022/01/26 03:15:14;;;;;;;11.27;6.45;;;-5.60;99.90;;;;;;4991683;28;20053;-77
2022/01/26 03:20:18;;;;;;;20.15;6.20;;;-3.10;99.90;;;;;;4991846;28;20034;-80
2022/01/26 03:31:10;;;;;;;23.08;6.10;;;-5.50;99.90;;;;;;4991754;28;20018;-78
2022/01/26 03:33:52;;;;;;;13.90;6.47;;;-4.10;99.90;;;;;;4990933;28;20032;-77
2022/01/26 03:36:18;;;;;;;16.85;6.00;;;-5.40;99.90;;;;;;4973821;28;20032;-78
2022/01/26 03:38:58;;;;;;;15.75;5.82;;;-4.30;99.90;;;;;;4991243;28;20054;-82
2022/01/26 03:41:38;;;;;;;15.52;5.72;;;-5.10;99.90;;;;;;4991681;28;20604;-78
2022/01/26 03:44:05;;;;;;;13.60;5.95;;;-5.60;99.90;;;;;;4991616;28;20545;-77
2022/01/26 03:46:31;;;;;;;15.35;6.47;;;-5.50;99.90;;;;;;4991321;28;20025;-78
2022/01/26 03:48:57;;;;;;;14.90;5.60;;;-3.50;99.90;;;;;;4991022;28;20026;-77
2022/01/26 03:51:22;;;;;;;15.00;6.07;;;-5.40;99.90;;;;;;4973546;28;20478;-78
2022/01/26 03:53:48;;;;;;;15.80;6.45;;;-3.00;99.90;;;;;;4991016;28;20102;-82
2022/01/26 03:56:14;;;;;;;16.25;6.40;;;-5.30;99.90;;;;;;4991227;28;20022;-81
2022/01/26 03:58:40;;;;;;;14.52;5.82;;;-5.40;99.90;;;;;;4990910;28;20042;-81
2022/01/26 04:01:06;;;;;;;17.15;6.32;;;-2.60;99.90;;;;;;4991388;28;20023;-83
2022/01/26 04:03:31;;;;;;;14.32;7.15;;;-5.60;99.90;;;;;;4973267;28;20030;-78
2022/01/26 04:05:57;;;;;;;15.20;5.72;;;-5.60;99.90;;;;;;4990984;28;20034;-85
2022/01/26 04:08:28;;;;;;;15.18;5.05;;;-5.70;99.90;;;;;;4990856;28;20026;-84
2022/01/26 04:13:38;;;;;;;15.43;6.10;;;-4.10;99.90;;;;;;4990948;28;20040;-78
2022/01/26 04:16:05;;;;;;;10.48;5.57;;;-5.90;99.90;;;;;;4973428;28;20113;-78
2022/01/26 04:18:36;;;;;;;16.23;5.75;;;-5.80;99.90;;;;;;4990651;28;20050;-80
2022/01/26 04:21:10;;;;;;;15.10;4.72;;;-5.60;99.90;;;;;;4973668;28;20117;-79
2022/01/26 04:26:07;;;;;;;14.95;5.00;;;-5.50;99.90;;;;;;4990178;28;20022;-82
2022/01/26 04:28:41;;;;;;;10.88;5.63;;;-6.00;99.90;;;;;;4973390;28;20033;-80
2022/01/26 04:31:09;;;;;;;11.13;5.63;;;-5.30;99.90;;;;;;4973282;28;20076;-79
2022/01/26 04:33:34;;;;;;;14.13;5.68;;;-5.30;99.90;;;;;;4972851;28;20034;-78
2022/01/26 04:36:02;;;;;;;16.85;7.18;;;-5.40;99.90;;;;;;4990446;28;20023;-80
2022/01/26 04:38:40;;;;;;;13.23;5.35;;;-3.20;99.90;;;;;;4972794;28;20517;-78
2022/01/26 04:43:55;;;;;;;12.70;6.22;;;-5.80;99.90;;;;;;4990451;28;20091;-78
2022/01/26 04:46:20;;;;;;;9.07;4.20;;;-5.80;99.90;;;;;;4972763;28;20022;-77
2022/01/26 04:48:46;;;;;;;15.45;5.85;;;-6.20;99.90;;;;;;4972613;28;20029;-78
2022/01/26 04:51:12;;;;;;;13.82;5.43;;;-6.30;99.90;;;;;;4972916;28;20026;-78
2022/01/26 04:53:37;;;;;;;18.13;5.50;;;-6.40;99.90;;;;;;4990490;28;20030;-78
2022/01/26 04:56:03;;;;;;;16.13;5.22;;;-6.50;99.90;;;;;;4990298;28;20037;-79
2022/01/26 04:58:29;;;;;;;13.05;4.65;;;-6.50;99.90;;;;;;4990158;28;20065;-78
2022/01/26 05:00:55;;;;;;;12.80;4.78;;;-6.60;99.90;;;;;;4991646;28;20026;-84
2022/01/26 05:03:20;;;;;;;10.63;4.30;;;-6.60;99.90;;;;;;4990012;28;20373;-81
2022/01/26 05:05:46;;;;;;;12.30;5.45;;;-6.60;99.90;;;;;;4990360;28;20431;-80
2022/01/26 05:08:11;;;;;;;13.60;5.28;;;-6.50;99.90;;;;;;4972590;28;20483;-80
2022/01/26 05:10:41;;;;;;;12.75;5.75;;;-6.50;99.90;;;;;;4990193;28;20403;-78
2022/01/26 05:13:09;;;;;;;10.95;4.88;;;-6.50;99.90;;;;;;4972559;28;20068;-78
2022/01/26 05:15:35;;;;;;;12.73;4.60;;;-6.60;99.90;;;;;;4990418;28;20019;-79
2022/01/26 05:18:00;;;;;;;15.93;6.05;;;-5.40;99.90;;;;;;4989899;28;20092;-78
2022/01/26 05:20:26;;;;;;;16.30;6.93;;;-6.60;99.90;;;;;;4972487;28;20018;-81
2022/01/26 05:22:52;;;;;;;11.68;5.20;;;-6.50;99.90;;;;;;4993887;28;20041;-79
2022/01/26 05:25:18;;;;;;;16.95;5.30;;;-6.50;99.90;;;;;;4976224;28;20048;-78
2022/01/26 05:27:43;;;;;;;15.23;5.45;;;-6.30;99.90;;;;;;4994302;28;20018;-87
2022/01/26 05:30:10;;;;;;;16.70;5.60;;;-6.00;99.90;;;;;;4976300;28;20080;-79
2022/01/26 05:32:35;;;;;;;14.45;5.90;;;-5.80;99.90;;;;;;4993625;28;20030;-85
2022/01/26 05:35:01;;;;;;;25.48;6.57;;;-5.70;99.90;;;;;;4994518;28;20076;-78
2022/01/26 05:37:27;;;;;;;18.45;7.10;;;-5.70;99.90;;;;;;4976130;28;20062;-77
2022/01/26 05:39:53;;;;;;;22.17;5.40;;;-5.70;99.90;;;;;;4993612;28;20029;-78
2022/01/26 05:42:18;;;;;;;16.63;5.97;;;-5.70;99.90;;;;;;4976624;28;20595;-79
2022/01/26 05:44:45;;;;;;;17.15;6.45;;;-5.50;99.90;;;;;;4976258;28;20479;-78
2022/01/26 05:47:16;;;;;;;27.15;9.43;;;-5.30;99.90;;;;;;4975914;28;20027;-78
2022/01/26 05:49:41;;;;;;;36.72;7.13;;;-5.40;99.90;;;;;;4993552;28;20033;-78
2022/01/26 05:52:07;;;;;;;29.00;7.20;;;-5.40;99.90;;;;;;4993719;28;20026;-78
2022/01/26 05:54:33;;;;;;;25.50;10.02;;;-4.20;99.90;;;;;;4975731;28;20117;-78
2022/01/26 05:56:58;;;;;;;29.30;7.43;;;-4.20;99.90;;;;;;4993502;28;20085;-78
2022/01/26 05:59:24;;;;;;;25.42;8.95;;;-5.30;99.90;;;;;;4993308;28;20030;-79
2022/01/26 06:01:50;;;;;;;30.73;7.43;;;-3.30;99.90;;;;;;4993129;28;20026;-79
2022/01/26 06:04:17;;;;;;;27.27;9.05;;;-2.90;99.90;;;;;;4993720;28;20046;-83
2022/01/26 06:06:43;;;;;;;35.45;9.25;;;-4.10;99.90;;;;;;4976173;28;20056;-79
2022/01/26 06:09:09;;;;;;;34.08;9.43;;;-5.00;99.90;;;;;;4994090;28;20475;-79
2022/01/26 06:11:35;;;;;;;24.83;8.55;;;-4.90;99.90;;;;;;4976289;28;20332;-85
2022/01/26 06:14:01;;;;;;;37.33;9.93;;;-4.90;99.90;;;;;;4993888;28;20031;-79
2022/01/26 06:16:27;;;;;;;24.50;8.65;;;-4.80;99.90;;;;;;4993627;28;20372;-79
2022/01/26 06:18:52;;;;;;;28.23;8.93;;;-3.90;99.90;;;;;;4998218;28;20176;-83
2022/01/26 06:21:18;;;;;;;27.35;8.52;;;-3.70;99.90;;;;;;4996158;28;20078;-80
2022/01/26 06:23:44;;;;;;;36.25;10.05;;;-4.60;99.90;;;;;;4995445;28;20026;-79
2022/01/26 06:26:10;;;;;;;32.65;9.27;;;-4.50;99.90;;;;;;4992860;28;20185;-78
2022/01/26 06:28:35;;;;;;;42.67;11.20;;;-4.40;99.90;;;;;;4975326;28;20501;-78
2022/01/26 06:31:10;;;;;;;38.75;10.43;;;-2.40;99.90;;;;;;4975473;28;20026;-78
2022/01/26 06:33:36;;;;;;;29.38;8.95;;;-2.70;99.90;;;;;;4974688;28;20046;-79
2022/01/26 06:36:03;;;;;;;43.88;9.88;;;-2.70;99.90;;;;;;4976041;28;20042;-78
2022/01/26 06:38:29;;;;;;;23.23;7.60;;;-4.40;99.90;;;;;;4975338;28;20148;-78
2022/01/26 06:40:57;;;;;;;19.75;7.60;;;-3.70;99.90;;;;;;4993458;28;20027;-78
2022/01/26 06:43:27;;;;;;;31.25;7.97;;;-2.50;99.90;;;;;;4975344;28;20406;-79
2022/01/26 06:46:00;;;;;;;49.25;10.90;;;-4.90;99.90;;;;;;4974994;28;20095;-78
2022/01/26 06:50:51;;;;;;;35.35;8.40;;;-4.30;99.90;;;;;;4992920;28;20100;-83
2022/01/26 06:53:17;;;;;;;37.08;8.02;;;-3.90;99.90;;;;;;4974910;28;20126;-79
2022/01/26 06:55:42;;;;;;;52.67;8.40;;;-2.90;99.90;;;;;;4974643;28;20026;-79
2022/01/26 06:58:08;;;;;;;35.00;9.32;;;-4.40;99.90;;;;;;4992311;28;20220;-79
2022/01/26 07:00:34;;;;;;;37.45;9.02;;;-3.30;99.90;;;;;;4974642;28;20022;-79
2022/01/26 07:03:00;;;;;;;22.17;7.47;;;-2.00;99.90;;;;;;4974729;28;20041;-79
2022/01/26 07:05:26;;;;;;;26.08;8.95;;;-2.90;99.90;;;;;;4974615;28;20068;-79
2022/01/26 07:07:51;;;;;;;27.38;8.40;;;-4.10;99.90;;;;;;4974949;28;20035;-78
2022/01/26 07:10:17;;;;;;;37.03;9.18;;;-4.00;99.90;;;;;;4974377;28;20018;-82
2022/01/26 07:12:43;;;;;;;22.23;8.40;;;-4.00;99.90;;;;;;4992282;28;20022;-82
2022/01/26 07:23:18;;;;;;;53.17;11.82;;;-3.80;99.90;;;;;;4992057;28;20034;-78
2022/01/26 07:25:44;;;;;;;43.05;10.32;;;-3.70;99.90;;;;;;4991876;28;20019;-77
2022/01/26 07:28:10;;;;;;;28.48;11.82;;;-2.50;99.90;;;;;;4992713;28;20061;-77
2022/01/26 07:30:36;;;;;;;31.10;10.82;;;-2.60;99.90;;;;;;4993046;28;20482;-89
2022/01/26 07:33:03;;;;;;;26.38;9.48;;;-2.40;99.90;;;;;;4992766;28;20451;-85
2022/01/26 07:35:29;;;;;;;27.13;11.65;;;-2.20;99.90;;;;;;4991629;28;20037;-79
2022/01/26 07:37:58;;;;;;;30.00;11.02;;;-1.90;99.90;;;;;;4991421;28;20054;-83
2022/01/26 07:40:25;;;;;;;33.17;12.38;;;-1.50;99.90;;;;;;4974935;28;20117;-77
2022/01/26 07:42:51;;;;;;;34.33;13.50;;;-1.70;99.90;;;;;;4993160;28;20026;-77
2022/01/26 07:45:17;;;;;;;40.05;12.43;;;-2.70;99.90;;;;;;4995905;28;20049;-77
2022/01/26 07:47:43;;;;;;;32.00;11.80;;;-1.90;99.90;;;;;;4979835;28;20537;-77
2022/01/26 07:50:12;;;;;;;34.28;12.18;;;-1.90;99.90;;;;;;4993299;28;20487;-80
2022/01/26 07:52:41;;;;;;;34.22;12.07;;;-2.90;99.90;;;;;;4993036;28;20113;-78
2022/01/26 07:55:09;;;;;;;39.60;10.70;;;-1.90;99.90;;;;;;4977569;28;20022;-77
2022/01/26 07:57:35;;;;;;;29.17;11.80;;;-3.00;99.90;;;;;;4993279;28;20042;-83
2022/01/26 08:00:01;;;;;;;36.72;12.52;;;-3.00;99.90;;;;;;4992291;28;20019;-76
2022/01/26 08:02:27;;;;;;;27.00;11.82;;;-2.90;99.90;;;;;;4988684;28;20101;-80
2022/01/26 08:04:52;;;;;;;36.83;13.60;;;-2.40;99.90;;;;;;4991315;28;20118;-78
2022/01/26 08:07:18;;;;;;;30.10;12.45;;;-1.30;99.90;;;;;;4973139;28;20106;-80
2022/01/26 08:09:44;;;;;;;34.15;11.70;;;-1.70;99.90;;;;;;4974382;28;20022;-88
2022/01/26 08:12:15;;;;;;;26.70;10.13;;;-2.90;99.90;;;;;;4974662;28;20063;-90
2022/01/26 08:14:42;;;;;;;28.88;11.82;;;-1.90;99.90;;;;;;4991220;28;20019;-91
2022/01/26 08:17:08;;;;;;;34.15;12.07;;;-1.80;99.90;;;;;;4973413;28;20049;-80
2022/01/26 08:19:35;;;;;;;24.90;10.20;;;-2.40;99.90;;;;;;4975779;28;20037;-79
2022/01/26 08:22:03;;;;;;;39.15;12.05;;;-3.10;99.90;;;;;;4979402;28;20027;-78
2022/01/26 08:24:30;;;;;;;30.73;11.75;;;-2.90;99.90;;;;;;4973698;28;20061;-81
2022/01/26 08:27:05;;;;;;;32.67;11.35;;;-2.80;99.90;;;;;;4968542;28;20038;-80
2022/01/26 08:29:38;;;;;;;33.67;12.40;;;-2.70;99.90;;;;;;4972496;28;20437;-78
2022/01/26 08:32:04;;;;;;;25.50;11.13;;;-2.10;99.90;;;;;;4983433;28;20073;-78
2022/01/26 08:34:30;;;;;;;31.95;11.65;;;-2.50;99.90;;;;;;4970232;28;20022;-78
2022/01/26 08:36:56;;;;;;;30.35;11.18;;;-2.50;99.90;;;;;;4987797;28;20472;-80
2022/01/26 08:39:22;;;;;;;28.30;9.75;;;-2.60;99.90;;;;;;4970205;28;20648;-77
2022/01/26 08:41:48;;;;;;;27.45;10.60;;;-1.50;99.90;;;;;;4970034;28;20034;-78
2022/01/26 08:44:14;;;;;;;24.35;8.82;;;-2.60;99.90;;;;;;4970337;28;20053;-79
2022/01/26 08:46:41;;;;;;;31.42;10.68;;;-2.10;99.90;;;;;;4987077;28;20527;-77
2022/01/26 08:49:07;;;;;;;27.35;10.90;;;-1.90;99.90;;;;;;4970066;28;20475;-76
2022/01/26 08:51:32;;;;;;;30.88;11.43;;;-1.50;99.90;;;;;;4988353;28;20030;-81
2022/01/26 08:53:58;;;;;;;29.88;11.65;;;-1.80;99.90;;;;;;4976545;28;20113;-76
2022/01/26 08:56:25;;;;;;;31.25;14.50;;;-2.70;99.90;;;;;;4968270;28;20037;-75
2022/01/26 08:58:52;;;;;;;45.08;12.90;;;-1.60;99.90;;;;;;4968452;28;20305;-76
2022/01/26 09:01:17;;;;;;;28.65;11.38;;;-2.10;99.90;;;;;;4968287;28;20451;-78
2022/01/26 09:03:43;;;;;;;29.02;10.90;;;-2.50;99.90;;;;;;4967526;28;20026;-76
2022/01/26 09:06:09;;;;;;;30.70;10.07;;;-2.30;99.90;;;;;;4968905;28;20435;-77
2022/01/26 09:08:38;;;;;;;26.35;12.40;;;-2.00;99.90;;;;;;4969044;28;20499;-78
2022/01/26 09:11:04;;;;;;;;;;;-1.30;99.90;;;;;;4968396;28;20050;-77
2022/01/26 09:13:32;;;;;;;32.47;10.93;;;-2.50;99.90;;;;;;4969407;28;19978;-80
2022/01/26 09:15:58;;;;;;;35.55;10.52;;;-1.20;99.90;;;;;;4967704;28;20106;-79
2022/01/26 09:18:35;;;;;;;28.02;11.55;;;-2.50;99.90;;;;;;4967154;28;20039;-78
2022/01/26 09:21:00;;;;;;;21.48;10.40;;;-2.50;99.90;;;;;;4975880;28;20097;-79
2022/01/26 09:23:26;;;;;;;35.70;12.88;;;-2.50;99.90;;;;;;4971818;28;20034;-79
2022/01/26 09:25:52;;;;;;;32.67;11.35;;;-2.50;99.90;;;;;;4990180;28;20022;-78
2022/01/26 09:28:18;;;;;;;26.60;10.93;;;-2.00;99.90;;;;;;4988456;28;20561;-79
2022/01/26 09:30:43;;;;;;;29.88;11.20;;;-1.90;99.90;;;;;;4987954;28;20015;-77
2022/01/26 09:33:09;;;;;;;35.33;12.82;;;-1.60;99.90;;;;;;4986961;28;20379;-78
2022/01/26 09:35:35;;;;;;;29.13;11.07;;;-1.70;99.90;;;;;;4987688;28;20050;-85
2022/01/26 09:38:01;;;;;;;22.98;9.90;;;-1.60;99.90;;;;;;4990622;28;20054;-79
2022/01/26 09:40:26;;;;;;;33.85;12.13;;;-1.60;99.90;;;;;;4973889;28;20019;-79
2022/01/26 09:42:54;;;;;;;30.45;12.40;;;-2.30;99.90;;;;;;4974277;28;20030;-80
2022/01/26 09:45:19;;;;;;;28.30;10.88;;;-1.60;99.90;;;;;;4989495;28;20027;-79
2022/01/26 09:47:45;;;;;;;40.33;11.07;;;-1.60;99.90;;;;;;4989143;28;20062;-78
2022/01/26 09:50:11;;;;;;;39.72;12.73;;;-2.40;99.90;;;;;;4988319;28;20410;-78
2022/01/26 09:52:41;;;;;;;34.00;11.98;;;-1.40;99.90;;;;;;4986805;28;20472;-79
2022/01/26 09:55:09;;;;;;;33.47;11.20;;;-2.80;99.90;;;;;;4970102;28;20141;-79
2022/01/26 09:57:36;;;;;;;28.85;10.38;;;-2.60;99.90;;;;;;4969951;28;20414;-78
2022/01/26 10:00:05;;;;;;;39.15;12.38;;;-1.60;99.90;;;;;;4969460;28;20038;-79
2022/01/26 10:02:35;;;;;;;33.05;11.52;;;-2.30;99.90;;;;;;4988046;28;20498;-79
2022/01/26 10:05:10;;;;;;;38.50;13.57;;;-1.90;99.90;;;;;;4988583;28;20037;-79
2022/01/26 10:08:11;;;;;;;30.27;11.43;;;-2.20;99.90;;;;;;4989432;28;20027;-78
2022/01/26 10:16:15;;;;;;;26.38;9.30;;;-2.60;99.90;;;;;;4980818;28;20400;-79
2022/01/26 10:18:41;;;;;;;;;;;-2.30;99.90;;;;;;4973490;28;20499;-78
2022/01/26 10:21:08;;;;;;;19.33;6.68;;;-2.30;99.90;;;;;;4990328;28;19960;-80
2022/01/26 10:23:42;;;;;;;26.77;9.52;;;-2.20;99.90;;;;;;4973451;28;20027;-79
2022/01/26 10:26:19;;;;;;;32.80;11.60;;;-2.20;99.90;;;;;;4974055;28;20073;-79
2022/01/26 10:28:57;;;;;;;32.70;11.57;;;-2.20;99.90;;;;;;4972752;28;20033;-78
2022/01/26 10:31:25;;;;;;;34.53;10.85;;;-2.40;99.90;;;;;;4972489;28;20023;-79
2022/01/26 10:34:06;;;;;;;35.95;10.65;;;-1.90;99.90;;;;;;4972796;28;20026;-78
2022/01/26 10:37:04;;;;;;;26.20;10.05;;;-2.20;99.90;;;;;;4991053;28;20026;-78
2022/01/26 10:39:44;;;;;;;34.20;13.50;;;-2.10;99.90;;;;;;4996428;28;20042;-76
2022/01/26 10:42:19;;;;;;;34.95;12.50;;;-1.90;99.90;;;;;;4977508;28;20072;-76
2022/01/26 10:44:53;;;;;;;33.83;12.65;;;-1.40;99.90;;;;;;4988891;28;20027;-76
2022/01/26 10:47:34;;;;;;;31.33;11.65;;;-1.20;99.90;;;;;;4990560;28;20450;-75
2022/01/26 10:50:31;;;;;;;35.13;11.43;;;-1.60;99.90;;;;;;4990851;28;20057;-75
2022/01/26 10:53:08;;;;;;;29.92;10.48;;;-1.50;99.90;;;;;;4990226;28;20022;-75
2022/01/26 10:55:36;;;;;;;34.75;11.57;;;-1.40;99.90;;;;;;4990092;28;20280;-75
2022/01/26 10:58:03;;;;;;;38.88;13.20;;;-1.20;99.90;;;;;;4990360;28;20113;-74
2022/01/26 11:00:35;;;;;;;29.83;10.15;;;-1.30;99.90;;;;;;4990268;28;20495;-75
2022/01/26 11:03:01;;;;;;;31.10;11.02;;;-1.20;99.90;;;;;;4972919;28;20379;-75
2022/01/26 11:05:27;;;;;;;33.30;10.75;;;-1.20;99.90;;;;;;4990261;28;20033;-74
2022/01/26 11:07:54;;;;;;;35.58;10.88;;;-1.10;99.90;;;;;;4989840;28;20045;-74
2022/01/26 11:10:24;;;;;;;32.13;12.27;;;-1.00;99.90;;;;;;4989753;28;20425;-75
2022/01/26 11:12:49;;;;;;;34.40;12.48;;;-1.00;99.90;;;;;;4990630;28;20026;-75
2022/01/26 11:15:16;;;;;;;36.45;12.18;;;-0.50;99.90;;;;;;4989825;28;20038;-75
2022/01/26 11:17:46;;;;;;;26.83;11.55;;;-1.00;99.90;;;;;;4988776;28;20394;-75
2022/01/26 11:20:28;;;;;;;32.47;12.00;;;-1.30;99.90;;;;;;4975654;28;20023;-75
2022/01/26 11:22:59;;;;;;;28.70;11.02;;;-1.10;99.90;;;;;;4969716;28;20346;-76
2022/01/26 11:25:28;;;;;;;34.65;12.02;;;-0.80;99.90;;;;;;4970778;28;20558;-74
2022/01/26 11:27:54;;;;;;;21.08;8.43;;;-0.80;99.90;;;;;;4970327;28;20029;-75
2022/01/26 11:30:24;;;;;;;25.40;9.63;;;-0.70;99.90;;;;;;4968030;28;20453;-76
2022/01/26 11:32:59;;;;;;;28.67;11.05;;;-0.80;99.90;;;;;;4969345;28;20023;-75
2022/01/26 11:35:28;;;;;;;18.98;7.88;;;-1.00;99.90;;;;;;4969760;28;20023;-76
2022/01/26 11:38:27;;;;;;;22.70;8.13;;;-1.10;99.90;;;;;;4969657;28;20115;-77
2022/01/26 11:46:34;;;;;;;21.10;8.85;;;0.30;99.90;;;;;;4988282;28;20224;-78
2022/01/26 11:49:03;;;;;;;22.60;11.68;;;-0.40;99.90;;;;;;4989440;28;20061;-77
2022/01/26 11:51:49;;;;;;;21.35;9.98;;;0.70;99.90;;;;;;4971267;28;20061;-78
2022/01/26 11:54:23;;;;;;;27.80;8.95;;;-0.60;99.90;;;;;;4969981;28;20459;-76
2022/01/26 11:57:03;;;;;;;19.70;7.10;;;-0.60;99.90;;;;;;4988659;28;20031;-78
2022/01/26 11:59:32;;;;;;;25.60;9.35;;;-0.60;99.90;;;;;;4988202;28;20051;-78
2022/01/26 12:02:05;;;;;;;36.35;11.40;;;0.80;99.90;;;;;;4987529;28;20121;-77
2022/01/26 12:04:33;;;;;;;31.90;11.30;;;0.90;99.90;;;;;;4989765;28;20105;-77
2022/01/26 12:07:10;;;;;;;27.80;10.07;;;0.90;99.90;;;;;;4987151;28;20030;-77
2022/01/26 12:09:39;;;;;;;20.60;7.90;;;-0.30;99.90;;;;;;4970868;28;20120;-78
2022/01/26 12:12:08;;;;;;;31.60;10.68;;;-0.20;99.90;;;;;;4988391;28;20030;-77
2022/01/26 12:14:34;;;;;;;39.25;13.82;;;-0.60;99.90;;;;;;4988654;28;20031;-80
2022/01/26 12:17:04;;;;;;;27.70;7.18;;;0.80;99.90;;;;;;4988141;28;20037;-77
2022/01/26 12:36:31;;;;;;;21.27;10.25;;;-0.60;99.90;;;;;;4984123;28;20018;-77
2022/01/26 12:38:58;;;;;;;44.10;17.15;;;-0.60;99.90;;;;;;4982996;28;20050;-79
2022/01/26 12:41:51;;;;;;;30.90;10.02;;;-0.50;99.90;;;;;;4970775;28;20551;-77
2022/01/26 12:44:12;;;;;;;28.38;10.27;;;1.00;99.90;;;;;;4986064;28;20483;-82
2022/01/26 12:46:40;;;;;;;32.58;10.38;;;0.90;99.90;;;;;;4987536;28;20117;-79
2022/01/26 12:49:14;;;;;;;25.27;10.27;;;-0.60;99.90;;;;;;4971315;28;20022;-77
2022/01/26 12:51:51;;;;;;;28.13;10.10;;;-0.30;99.90;;;;;;4988458;28;20577;-78
2022/01/26 12:54:18;;;;;;;41.75;16.42;;;1.00;99.90;;;;;;4971381;28;20037;-77
2022/01/26 12:56:44;;;;;;;25.30;9.50;;;1.00;99.90;;;;;;4970535;28;20088;-78
2022/01/26 12:59:12;;;;;;;28.25;11.05;;;1.20;99.90;;;;;;4988945;28;20038;-77
2022/01/26 13:01:40;;;;;;;27.83;10.77;;;1.20;99.90;;;;;;4990898;28;20491;-76
2022/01/26 13:04:08;;;;;;;26.67;9.93;;;0.90;99.90;;;;;;4970185;28;20469;-77
2022/01/26 13:06:38;;;;;;;26.77;10.70;;;0.30;99.90;;;;;;4971418;28;20026;-78
2022/01/26 13:09:29;;;;;;;26.45;9.90;;;0.90;99.90;;;;;;4975413;28;20022;-77
2022/01/26 13:12:00;;;;;;;24.77;9.93;;;0.40;99.90;;;;;;4985210;28;20029;-77
2022/01/26 13:14:29;;;;;;;34.30;12.05;;;0.30;99.90;;;;;;4986713;28;20114;-78
2022/01/26 13:17:13;;;;;;;30.20;10.48;;;0.20;99.90;;;;;;4973203;28;20034;-77
2022/01/26 13:41:37;;;;;;;26.67;9.73;;;0.20;99.90;;;;;;4986988;28;20022;-77
2022/01/26 13:47:01;;;;;;;22.83;7.97;;;0.00;99.90;;;;;;4990422;28;20121;-77
2022/01/26 14:01:52;;;;;;;24.92;10.05;;;0.40;99.90;;;;;;4992232;28;19978;-78
2022/01/26 14:04:19;;;;;;;25.88;9.02;;;0.30;99.90;;;;;;4991023;28;20026;-76
2022/01/26 14:06:47;;;;;;;25.05;11.95;;;0.60;99.90;;;;;;4991386;28;20030;-77
2022/01/26 14:09:13;;;;;;;19.85;8.85;;;1.10;99.90;;;;;;4991370;28;20038;-79
2022/01/26 14:11:39;;;;;;;25.63;9.13;;;1.70;99.90;;;;;;4975457;28;20085;-78
2022/01/26 14:14:08;;;;;;;24.00;9.57;;;2.50;99.90;;;;;;4991268;28;20105;-77
2022/01/26 14:16:41;;;;;;;24.40;10.18;;;3.30;99.90;;;;;;4973216;28;20121;-78
2022/01/26 14:19:13;;;;;;;23.35;8.88;;;3.30;99.90;;;;;;4993819;28;20489;-77
2022/01/26 14:22:05;;;;;;;24.48;8.93;;;3.50;99.90;;;;;;4974626;28;20034;-78
2022/01/26 14:24:33;;;;;;;22.80;9.13;;;3.10;99.90;;;;;;4991091;28;20031;-77
2022/01/26 14:27:02;;;;;;;22.55;9.27;;;2.70;99.90;;;;;;4973214;28;20122;-78
2022/01/26 14:29:41;;;;;;;19.13;8.63;;;2.30;99.90;;;;;;4989877;28;20023;-79
2022/01/26 14:35:22;;;;;;;22.77;9.07;;;1.80;99.90;;;;;;4990980;28;20019;-78
2022/01/26 15:59:02;;;;;;;34.85;10.80;;;-0.60;99.90;;;;;;4998139;28;20041;-79
2022/01/26 16:26:19;;;;;;;24.60;9.10;;;-0.80;99.90;;;;;;4998758;28;20038;-76
2022/01/26 18:15:58;;;;;;;30.95;9.40;;;-1.20;99.90;;;;;;4930780;29;20031;-77
2022/01/26 18:50:50;;;;;;;29.25;9.10;;;-0.80;99.90;;;;;;4982792;28;20065;-86
2022/01/26 18:53:16;;;;;;;33.80;10.68;;;-0.70;99.90;;;;;;4971110;28;20652;-76
2022/01/26 18:55:42;;;;;;;27.55;10.32;;;-0.80;99.90;;;;;;4967255;28;20058;-77
2022/01/26 18:58:08;;;;;;;29.17;10.98;;;-0.80;99.90;;;;;;4982816;28;20142;-75
2022/01/26 19:00:34;;;;;;;40.42;12.05;;;-0.80;99.90;;;;;;4972458;28;20401;-76
2022/01/26 19:03:00;;;;;;;26.00;8.90;;;-1.50;99.90;;;;;;4980242;28;20121;-77
2022/01/26 19:05:27;;;;;;;35.10;12.75;;;-0.80;99.90;;;;;;4983197;28;20101;-76
2022/01/26 19:07:55;;;;;;;20.33;8.77;;;-0.80;99.90;;;;;;4972203;28;20041;-78
2022/01/26 19:10:21;;;;;;;30.70;11.35;;;0.50;99.90;;;;;;4971796;28;20498;-77
2022/01/26 19:12:49;;;;;;;37.40;13.23;;;1.20;99.90;;;;;;4975001;28;20026;-76
2022/01/26 19:15:17;;;;;;;26.67;11.13;;;-0.70;99.90;;;;;;4991856;28;20033;-76
2022/01/26 19:17:58;;;;;;;32.80;10.85;;;-0.90;99.90;;;;;;4989351;28;20190;-76
2022/01/26 19:25:30;;;;;;;31.23;9.00;;;-1.00;99.90;;;;;;4983369;28;20045;-77
2022/01/26 19:28:35;;;;;;;33.20;11.68;;;-0.90;99.90;;;;;;4982648;28;20521;-76
2022/01/26 19:52:23;;;;;;;37.20;11.90;;;-1.00;99.90;;;;;;4981438;28;20554;-76
2022/01/26 19:54:50;;;;;;;29.80;11.50;;;-1.20;99.90;;;;;;4970625;28;20442;-78
2022/01/26 19:57:18;;;;;;;34.10;9.57;;;-1.00;99.90;;;;;;4991874;28;20169;-78
2022/01/26 19:59:43;;;;;;;36.25;12.15;;;-0.90;99.90;;;;;;4981341;28;20433;-80
2022/01/26 20:02:10;;;;;;;32.58;10.80;;;-0.80;99.90;;;;;;4981969;28;20027;-77
2022/01/26 20:04:35;;;;;;;27.95;11.02;;;-0.90;99.90;;;;;;4975490;28;20041;-78
2022/01/26 20:07:08;;;;;;;38.45;11.73;;;-0.90;99.90;;;;;;4983227;28;20238;-87
2022/01/26 20:09:39;;;;;;;40.63;13.15;;;-0.90;99.90;;;;;;4976721;28;20019;-79